Terminal Aerodrome Forecast
Issued by NWS Wilmington, OH

Current Version | Previous Version | Graphics & Text | Print | Product List | Glossary On
Versions: 1 2 3 4 5 6 7 8 9 10 11 12 13 14 15 16 17 18 19 20 21 22 23 24 25 26 27 28 29 30 31 32 33 34 35
000
FTUS41 KILN 280400 AAA
TAFCMH
TAF AMD
KCMH 280437Z 2805/2824 29014G24KT P6SM VCSH OVC015
      TEMPO 2805/2809 5SM BR OVC008
     FM281400 32014G24KT P6SM FEW025 SCT035
     FM282200 31008KT P6SM FEW040 SCT250=

USA.gov is the U.S. government's official web portal to all federal, state and local government web resources and services.